Time;durP1;ratioP1;P1;durP2;ratioP2;P2;SDS_P1;SDS_P2;PMS_P1;PMS_P2;Temp;Humidity;BMP_temperature;BMP_pressure;BME280_temperature;BME280_humidity;BME280_pressure;Samples;Min_cycle;Max_cycle;Signal;HPM_P1;HPM_P2
2024/01/27 00:03:29;;;;;;;0.60;0.60;;;;;;;;;;20848437;28;20037;-69
2024/01/27 00:13:48;;;;;;;0.63;0.63;;;;;;;;;;20846342;28;20049;-69
2024/01/27 00:24:08;;;;;;;0.60;0.60;;;;;;;;;;20847074;28;20080;-69
2024/01/27 00:34:27;;;;;;;0.65;0.65;;;;;;;;;;20814875;28;20513;-68
2024/01/27 00:44:46;;;;;;;0.63;0.63;;;;;;;;;;20838225;28;20053;-69
2024/01/27 00:55:06;;;;;;;0.50;0.50;;;;;;;;;;20845631;28;20045;-69
2024/01/27 01:05:26;;;;;;;0.60;0.60;;;;;;;;;;20845044;28;20046;-69
2024/01/27 01:15:45;;;;;;;0.65;0.50;;;;;;;;;;20844792;28;20053;-72
2024/01/27 01:26:04;;;;;;;0.45;0.45;;;;;;;;;;20859652;28;20041;-72
2024/01/27 01:36:23;;;;;;;0.68;0.52;;;;;;;;;;20833640;28;20405;-72
2024/01/27 01:46:43;;;;;;;0.50;0.50;;;;;;;;;;20846601;28;20057;-72
2024/01/27 01:57:03;;;;;;;0.52;0.52;;;;;;;;;;20858330;28;20405;-72
2024/01/27 02:07:22;;;;;;;0.70;0.50;;;;;;;;;;20856238;28;20045;-72
2024/01/27 02:17:41;;;;;;;0.50;0.50;;;;;;;;;;20856512;28;20041;-68
2024/01/27 02:28:02;;;;;;;0.50;0.50;;;;;;;;;;20842099;28;20037;-69
2024/01/27 02:38:22;;;;;;;0.57;0.40;;;;;;;;;;20826537;28;20046;-69
2024/01/27 02:48:42;;;;;;;0.40;0.40;;;;;;;;;;20826173;28;20053;-68
2024/01/27 02:59:02;;;;;;;0.40;0.40;;;;;;;;;;20853098;28;20041;-68
2024/01/27 03:09:21;;;;;;;0.50;0.50;;;;;;;;;;20851803;28;20049;-69
2024/01/27 03:19:40;;;;;;;0.80;0.52;;;;;;;;;;20851151;28;20049;-69
2024/01/27 03:30:01;;;;;;;0.50;0.50;;;;;;;;;;20807175;28;20084;-69
2024/01/27 03:40:21;;;;;;;0.40;0.40;;;;;;;;;;20848543;28;20683;-69
2024/01/27 03:50:40;;;;;;;0.50;0.50;;;;;;;;;;20826485;28;20057;-69
2024/01/27 04:00:59;;;;;;;0.43;0.43;;;;;;;;;;20848366;28;20037;-68
2024/01/27 04:11:22;;;;;;;0.45;0.40;;;;;;;;;;20847874;28;20398;-68
2024/01/27 04:21:42;;;;;;;0.43;0.40;;;;;;;;;;20829796;28;20613;-68
2024/01/27 04:32:02;;;;;;;0.40;0.40;;;;;;;;;;20810555;28;20049;-69
2024/01/27 04:42:21;;;;;;;0.73;0.50;;;;;;;;;;20844449;28;20414;-69
2024/01/27 04:52:41;;;;;;;0.40;0.40;;;;;;;;;;20828138;28;20456;-69
2024/01/27 05:03:04;;;;;;;0.50;0.50;;;;;;;;;;20862245;28;20042;-69
2024/01/27 05:13:23;;;;;;;0.40;0.40;;;;;;;;;;20834243;28;20053;-69
2024/01/27 05:23:42;;;;;;;0.50;0.50;;;;;;;;;;20859174;28;20120;-72
2024/01/27 05:34:02;;;;;;;0.47;0.47;;;;;;;;;;20860437;28;20475;-72
2024/01/27 05:44:21;;;;;;;0.35;0.35;;;;;;;;;;20853516;28;20049;-72
2024/01/27 05:54:43;;;;;;;0.57;0.50;;;;;;;;;;20831882;28;20417;-72
2024/01/27 06:05:03;;;;;;;0.40;0.40;;;;;;;;;;20855841;28;20046;-72
2024/01/27 06:15:22;;;;;;;0.82;0.50;;;;;;;;;;20837225;28;20684;-73
2024/01/27 06:25:42;;;;;;;0.47;0.47;;;;;;;;;;20855466;28;20050;-72
2024/01/27 06:36:02;;;;;;;0.50;0.50;;;;;;;;;;20854804;28;20045;-71
2024/01/27 06:46:22;;;;;;;0.50;0.50;;;;;;;;;;20843345;28;20061;-72
2024/01/27 06:56:41;;;;;;;0.32;0.32;;;;;;;;;;20853377;28;20050;-72
2024/01/27 07:07:00;;;;;;;0.40;0.40;;;;;;;;;;20845522;28;20052;-72
2024/01/27 07:17:20;;;;;;;0.40;0.40;;;;;;;;;;20850907;28;20041;-72
2024/01/27 07:27:39;;;;;;;0.47;0.30;;;;;;;;;;20848856;28;20498;-72
2024/01/27 07:37:59;;;;;;;0.40;0.40;;;;;;;;;;20850049;28;20115;-72
2024/01/27 07:48:18;;;;;;;0.55;0.55;;;;;;;;;;20833177;28;20411;-73
2024/01/27 07:58:38;;;;;;;0.40;0.38;;;;;;;;;;20847550;28;20461;-72
2024/01/27 08:08:57;;;;;;;0.80;0.40;;;;;;;;;;20825747;28;20049;-73
2024/01/27 08:19:20;;;;;;;0.60;0.50;;;;;;;;;;20846131;28;20037;-72
2024/01/27 08:29:39;;;;;;;0.40;0.32;;;;;;;;;;20846289;28;20398;-73
2024/01/27 08:39:58;;;;;;;1.38;0.40;;;;;;;;;;20845326;28;20058;-72
2024/01/27 08:50:19;;;;;;;0.57;0.52;;;;;;;;;;20816406;28;20069;-72
2024/01/27 09:00:38;;;;;;;0.50;0.40;;;;;;;;;;20835652;28;20049;-69
2024/01/27 09:10:58;;;;;;;0.40;0.40;;;;;;;;;;20842970;28;20057;-68
2024/01/27 09:21:22;;;;;;;0.70;0.40;;;;;;;;;;20844909;28;20045;-68
2024/01/27 09:31:41;;;;;;;0.77;0.35;;;;;;;;;;20843339;28;20053;-68
2024/01/27 09:42:04;;;;;;;0.65;0.50;;;;;;;;;;20846127;28;20042;-69
2024/01/27 09:52:24;;;;;;;0.38;0.30;;;;;;;;;;20831305;28;20464;-69
2024/01/27 10:02:45;;;;;;;0.55;0.47;;;;;;;;;;20831396;28;20037;-68
2024/01/27 10:13:06;;;;;;;0.35;0.35;;;;;;;;;;20857579;28;20203;-69
2024/01/27 10:23:26;;;;;;;0.77;0.52;;;;;;;;;;20856042;28;20041;-68
2024/01/27 10:33:53;;;;;;;1.30;0.40;;;;;;;;;;20855515;28;20099;-69
2024/01/27 10:44:14;;;;;;;0.30;0.30;;;;;;;;;;20848086;28;20076;-68
2024/01/27 10:54:35;;;;;;;0.30;0.30;;;;;;;;;;20826726;28;20080;-72
2024/01/27 11:04:55;;;;;;;0.40;0.40;;;;;;;;;;20852836;28;20060;-72
2024/01/27 11:15:15;;;;;;;0.47;0.40;;;;;;;;;;20852155;28;20048;-72
2024/01/27 11:25:34;;;;;;;0.40;0.40;;;;;;;;;;20850563;28;20049;-72
2024/01/27 11:36:04;;;;;;;0.40;0.40;;;;;;;;;;20850342;28;20453;-72
2024/01/27 11:46:25;;;;;;;0.70;0.45;;;;;;;;;;20837852;28;20437;-73
2024/01/27 11:56:44;;;;;;;0.40;0.40;;;;;;;;;;20849162;28;20449;-69
2024/01/27 12:07:04;;;;;;;0.40;0.30;;;;;;;;;;20848053;28;20095;-69
2024/01/27 12:17:24;;;;;;;0.40;0.40;;;;;;;;;;20847002;28;20041;-69
2024/01/27 12:27:43;;;;;;;0.32;0.30;;;;;;;;;;20846784;28;20049;-69
2024/01/27 12:38:05;;;;;;;0.47;0.40;;;;;;;;;;20846360;28;20053;-70
2024/01/27 12:48:24;;;;;;;0.55;0.40;;;;;;;;;;20782037;28;20065;-69
2024/01/27 12:58:44;;;;;;;0.32;0.32;;;;;;;;;;20845999;28;20045;-69
2024/01/27 13:09:03;;;;;;;0.40;0.40;;;;;;;;;;20846744;28;20041;-70
2024/01/27 13:19:23;;;;;;;0.50;0.40;;;;;;;;;;20857930;28;20041;-69
2024/01/27 13:29:42;;;;;;;0.43;0.40;;;;;;;;;;20860665;28;20177;-69
2024/01/27 13:40:03;;;;;;;0.47;0.47;;;;;;;;;;20854966;28;20046;-73
2024/01/27 13:50:25;;;;;;;0.45;0.40;;;;;;;;;;20837133;28;20049;-72
2024/01/27 14:00:44;;;;;;;0.68;0.30;;;;;;;;;;20858729;28;20406;-73
2024/01/27 14:11:04;;;;;;;0.40;0.40;;;;;;;;;;20856736;28;20049;-72
2024/01/27 14:21:23;;;;;;;0.30;0.30;;;;;;;;;;20856991;28;20041;-72
2024/01/27 14:31:43;;;;;;;0.65;0.40;;;;;;;;;;20855627;28;20053;-74
2024/01/27 14:42:07;;;;;;;0.60;0.30;;;;;;;;;;20823445;28;20049;-72
2024/01/27 14:52:27;;;;;;;0.30;0.30;;;;;;;;;;20796537;28;20065;-69
2024/01/27 15:02:47;;;;;;;0.40;0.40;;;;;;;;;;20826470;28;20049;-69
2024/01/27 15:13:07;;;;;;;0.40;0.40;;;;;;;;;;20853441;28;20107;-69
2024/01/27 15:23:28;;;;;;;1.10;0.45;;;;;;;;;;20851272;28;20049;-69
2024/01/27 15:33:47;;;;;;;0.38;0.38;;;;;;;;;;20851193;28;20041;-69
2024/01/27 15:44:06;;;;;;;0.50;0.40;;;;;;;;;;20832846;28;20042;-69
2024/01/27 15:54:26;;;;;;;0.55;0.40;;;;;;;;;;20823714;28;20057;-69
2024/01/27 16:04:45;;;;;;;0.30;0.30;;;;;;;;;;20848661;28;20042;-72
2024/01/27 16:15:04;;;;;;;0.30;0.30;;;;;;;;;;20848014;28;20091;-72
2024/01/27 16:25:24;;;;;;;0.30;0.30;;;;;;;;;;20846924;28;20049;-73
2024/01/27 16:35:43;;;;;;;0.40;0.40;;;;;;;;;;20842428;28;20695;-72
2024/01/27 16:46:02;;;;;;;0.40;0.40;;;;;;;;;;20835810;28;20045;-73
2024/01/27 16:56:23;;;;;;;0.75;0.47;;;;;;;;;;20844935;28;20064;-72
2024/01/27 17:06:43;;;;;;;0.40;0.40;;;;;;;;;;20845580;28;20046;-69
2024/01/27 17:17:03;;;;;;;0.82;0.40;;;;;;;;;;20844210;28;20045;-72
2024/01/27 17:27:22;;;;;;;0.68;0.50;;;;;;;;;;20844652;28;20045;-73
2024/01/27 17:37:41;;;;;;;0.60;0.60;;;;;;;;;;20824553;28;20041;-73
2024/01/27 17:48:01;;;;;;;0.50;0.47;;;;;;;;;;20828413;28;20057;-73
2024/01/27 17:58:20;;;;;;;0.82;0.60;;;;;;;;;;20843457;28;20042;-72
2024/01/27 18:08:39;;;;;;;0.50;0.40;;;;;;;;;;20857578;28;20054;-72
2024/01/27 18:18:59;;;;;;;0.75;0.50;;;;;;;;;;20856761;28;20052;-72
2024/01/27 18:29:19;;;;;;;0.70;0.60;;;;;;;;;;20855706;28;20049;-72
2024/01/27 18:39:40;;;;;;;0.68;0.50;;;;;;;;;;20854661;28;20045;-73
2024/01/27 18:49:59;;;;;;;0.80;0.60;;;;;;;;;;20832529;28;20068;-72
2024/01/27 19:00:18;;;;;;;0.95;0.60;;;;;;;;;;20852655;28;20046;-72
2024/01/27 19:10:39;;;;;;;0.80;0.50;;;;;;;;;;20852978;28;20072;-72
2024/01/27 19:20:58;;;;;;;0.35;0.35;;;;;;;;;;20851691;28;20068;-73
2024/01/27 19:31:17;;;;;;;0.50;0.47;;;;;;;;;;20851573;28;20037;-73
2024/01/27 19:41:38;;;;;;;0.95;0.70;;;;;;;;;;20850131;28;20052;-73
2024/01/27 19:51:57;;;;;;;0.80;0.57;;;;;;;;;;20823827;28;20061;-69
2024/01/27 20:02:17;;;;;;;0.88;0.60;;;;;;;;;;20848934;28;20474;-69
2024/01/27 20:12:37;;;;;;;0.98;0.70;;;;;;;;;;20848365;28;20048;-69
2024/01/27 20:22:57;;;;;;;0.75;0.60;;;;;;;;;;20846121;28;20088;-69
2024/01/27 20:33:17;;;;;;;0.65;0.60;;;;;;;;;;20845846;28;20041;-69
2024/01/27 20:43:37;;;;;;;0.73;0.40;;;;;;;;;;20842851;28;20033;-69
2024/01/27 20:53:56;;;;;;;0.43;0.43;;;;;;;;;;20820365;28;20501;-69
2024/01/27 21:04:15;;;;;;;0.80;0.70;;;;;;;;;;20845718;28;20037;-72
2024/01/27 21:14:35;;;;;;;1.02;0.65;;;;;;;;;;20845682;28;20053;-72
2024/01/27 21:24:55;;;;;;;1.10;0.60;;;;;;;;;;20844593;28;20125;-72
2024/01/27 21:35:14;;;;;;;1.08;0.80;;;;;;;;;;20847172;28;20116;-72
2024/01/27 21:45:34;;;;;;;1.00;0.60;;;;;;;;;;20850310;28;20060;-72
2024/01/27 21:55:53;;;;;;;0.70;0.60;;;;;;;;;;20858436;28;20042;-73
2024/01/27 22:06:13;;;;;;;0.98;0.70;;;;;;;;;;20858065;28;20057;-72
2024/01/27 22:16:32;;;;;;;0.80;0.80;;;;;;;;;;20857401;28;20037;-69
2024/01/27 22:26:52;;;;;;;0.98;0.68;;;;;;;;;;20856306;28;20567;-69
2024/01/27 22:37:11;;;;;;;1.20;0.90;;;;;;;;;;20854985;28;20091;-69
2024/01/27 22:47:31;;;;;;;1.00;0.80;;;;;;;;;;20839586;28;20402;-69
2024/01/27 22:57:50;;;;;;;2.53;0.90;;;;;;;;;;20853303;28;20038;-69
2024/01/27 23:08:10;;;;;;;1.10;0.70;;;;;;;;;;20852064;28;20049;-69
2024/01/27 23:18:29;;;;;;;0.77;0.77;;;;;;;;;;20851884;28;20493;-72
2024/01/27 23:28:50;;;;;;;0.60;0.60;;;;;;;;;;20850963;28;20103;-72
2024/01/27 23:39:09;;;;;;;0.80;0.70;;;;;;;;;;20848148;28;20045;-72
2024/01/27 23:49:29;;;;;;;0.70;0.70;;;;;;;;;;20829952;28;20053;-69
2024/01/27 23:59:48;;;;;;;1.00;0.90;;;;;;;;;;20847567;28;20041;-69
